Time;durP1;ratioP1;P1;durP2;ratioP2;P2;SDS_P1;SDS_P2;PMS_P1;PMS_P2;Temp;Humidity;BMP_temperature;BMP_pressure;BME280_temperature;BME280_humidity;BME280_pressure;Samples;Min_cycle;Max_cycle;Signal;HPM_P1;HPM_P2
2023/07/15 00:04:34;;;;;;;11.10;4.90;;;;;;;20.16;65.06;99042.14;223716;182;145323;-68
2023/07/15 00:09:38;;;;;;;11.50;5.30;;;;;;;20.18;65.27;99035.05;223738;182;138657;-67
2023/07/15 00:14:41;;;;;;;8.70;4.70;;;;;;;20.16;65.26;99041.19;223726;182;137391;-68
2023/07/15 00:19:44;;;;;;;8.50;4.90;;;;;;;20.15;65.26;99045.30;223688;182;145778;-66
2023/07/15 00:24:47;;;;;;;11.40;5.40;;;;;;;20.09;65.32;99048.05;223671;182;138329;-70
2023/07/15 00:29:50;;;;;;;9.30;5.00;;;;;;;20.01;65.61;99045.11;223806;182;137016;-69
2023/07/15 00:34:54;;;;;;;12.10;5.20;;;;;;;19.92;65.75;99043.11;223658;183;145122;-66
2023/07/15 00:39:57;;;;;;;8.50;4.90;;;;;;;19.84;65.79;99045.73;223691;182;139615;-65
2023/07/15 00:45:00;;;;;;;7.10;4.70;;;;;;;19.76;65.97;99045.23;223729;182;138015;-64
2023/07/15 00:50:03;;;;;;;12.70;5.20;;;;;;;19.70;66.24;99039.58;223861;182;145721;-68
2023/07/15 00:55:08;;;;;;;9.00;4.60;;;;;;;19.67;66.17;99042.08;223687;183;150552;-63
2023/07/15 01:00:12;;;;;;;10.60;4.40;;;;;;;19.62;66.18;99041.60;223728;182;139666;-68
2023/07/15 01:05:17;;;;;;;10.60;4.70;;;;;;;19.59;66.48;99037.38;223788;182;148005;-69
2023/07/15 01:10:20;;;;;;;9.30;4.70;;;;;;;19.61;66.50;99041.42;223702;182;138281;-65
2023/07/15 01:15:24;;;;;;;8.30;5.00;;;;;;;19.61;66.50;99035.86;223746;182;137277;-66
2023/07/15 01:20:27;;;;;;;6.70;4.40;;;;;;;19.64;66.48;99030.30;223726;182;145807;-66
2023/07/15 01:25:30;;;;;;;7.50;4.80;;;;;;;19.59;66.43;99021.86;223652;182;138714;-65
2023/07/15 01:30:33;;;;;;;8.20;4.80;;;;;;;19.58;66.76;99017.02;223731;183;141511;-65
2023/07/15 01:35:36;;;;;;;8.50;5.10;;;;;;;19.56;66.95;99018.04;223792;182;145705;-66
2023/07/15 01:40:40;;;;;;;8.40;4.70;;;;;;;19.55;66.95;99017.63;223604;182;140437;-66
2023/07/15 01:45:46;;;;;;;8.30;4.70;;;;;;;19.51;67.30;99019.23;223720;182;138262;-69
2023/07/15 01:50:49;;;;;;;9.60;4.70;;;;;;;19.53;67.16;99014.92;223748;182;145363;-69
2023/07/15 01:56:02;;;;;;;8.30;4.20;;;;;;;19.55;66.88;99011.08;223714;182;138516;-68
2023/07/15 02:01:05;;;;;;;7.60;4.40;;;;;;;19.60;66.57;99012.83;223647;182;136481;-70
2023/07/15 02:06:08;;;;;;;10.10;4.90;;;;;;;19.58;66.53;99017.32;223667;182;145746;-70
2023/07/15 02:11:12;;;;;;;7.10;4.60;;;;;;;19.56;66.57;99011.96;223709;184;139163;-69
2023/07/15 02:16:15;;;;;;;8.80;5.00;;;;;;;19.52;66.58;99014.29;223744;182;137963;-74
2023/07/15 02:21:25;;;;;;;9.30;4.60;;;;;;;19.48;66.54;99008.10;223713;182;145267;-74
2023/07/15 02:26:28;;;;;;;7.60;4.90;;;;;;;19.41;66.79;99013.27;223675;182;138296;-73
2023/07/15 02:31:34;;;;;;;9.10;4.80;;;;;;;19.35;66.83;99014.89;223622;182;139692;-75
2023/07/15 02:36:37;;;;;;;8.50;4.70;;;;;;;19.31;67.24;99019.02;223609;183;146763;-75
2023/07/15 02:41:41;;;;;;;10.40;4.70;;;;;;;19.30;67.20;99023.50;223804;182;140953;-73
2023/07/15 02:46:44;;;;;;;7.30;4.50;;;;;;;19.32;67.32;99023.45;223674;183;140273;-75
2023/07/15 02:51:48;;;;;;;7.50;4.40;;;;;;;19.36;67.40;99030.27;223673;182;147137;-71
2023/07/15 02:56:53;;;;;;;9.10;5.30;;;;;;;19.36;67.29;99034.95;223800;182;139189;-68
2023/07/15 03:01:56;;;;;;;9.00;5.10;;;;;;;19.35;67.34;99036.86;223641;182;137305;-68
2023/07/15 03:07:00;;;;;;;8.20;5.20;;;;;;;19.30;67.68;99042.78;223665;182;147539;-67
2023/07/15 03:12:04;;;;;;;8.30;4.70;;;;;;;19.29;67.94;99040.03;223733;182;140049;-70
2023/07/15 03:17:11;;;;;;;7.00;4.80;;;;;;;19.26;68.06;99033.61;223820;182;137432;-68
2023/07/15 03:22:15;;;;;;;8.60;4.80;;;;;;;19.22;68.16;99034.23;223609;183;147251;-64
2023/07/15 03:27:18;;;;;;;13.50;5.10;;;;;;;19.21;68.22;99035.36;223737;183;138514;-64
2023/07/15 03:32:22;;;;;;;7.00;4.90;;;;;;;19.22;68.48;99034.76;223694;183;138775;-68
2023/07/15 03:37:26;;;;;;;157.60;128.60;;;;;;;19.31;68.73;99031.57;223644;182;147137;-69
2023/07/15 03:42:29;;;;;;;33.70;22.50;;;;;;;19.39;68.52;99035.48;223741;182;139788;-68
2023/07/15 03:47:34;;;;;;;20.30;13.30;;;;;;;19.44;68.42;99033.67;223768;182;139695;-67
2023/07/15 03:52:37;;;;;;;12.80;5.60;;;;;;;19.47;68.12;99031.17;223736;183;147606;-62
2023/07/15 03:57:40;;;;;;;9.50;5.20;;;;;;;19.46;68.07;99024.61;223684;182;138281;-67
2023/07/15 04:02:49;;;;;;;11.80;5.00;;;;;;;19.47;68.30;99024.70;223747;182;137241;-65
2023/07/15 04:07:53;;;;;;;20.90;15.20;;;;;;;19.50;68.31;99032.33;223615;182;149025;-64
2023/07/15 04:12:56;;;;;;;9.90;4.70;;;;;;;19.59;68.40;99036.48;223718;182;139626;-66
2023/07/15 04:17:59;;;;;;;8.20;5.10;;;;;;;19.70;68.04;99038.33;223722;182;137372;-65
2023/07/15 04:23:03;;;;;;;15.00;5.00;;;;;;;19.82;67.90;99042.81;223726;182;148999;-66
2023/07/15 04:28:06;;;;;;;10.20;5.10;;;;;;;19.90;67.82;99046.21;223665;182;139210;-65
2023/07/15 04:33:09;;;;;;;12.90;5.80;;;;;;;19.99;67.60;99048.73;223700;183;138773;-69
2023/07/15 04:38:13;;;;;;;10.20;5.50;;;;;;;20.09;67.17;99039.38;223621;182;146811;-69
2023/07/15 04:43:16;;;;;;;7.70;5.30;;;;;;;20.18;66.91;99044.62;223632;182;138408;-74
2023/07/15 04:48:19;;;;;;;9.10;5.60;;;;;;;20.29;66.95;99045.31;223716;183;140495;-67
2023/07/15 04:53:23;;;;;;;8.40;5.30;;;;;;;20.37;66.50;99045.41;223822;182;147070;-73
2023/07/15 04:58:26;;;;;;;10.20;5.20;;;;;;;20.45;66.50;99046.17;223608;182;139052;-68
2023/07/15 05:03:30;;;;;;;11.90;6.10;;;;;;;20.56;66.32;99047.61;223621;182;138429;-66
2023/07/15 05:08:33;;;;;;;12.00;6.30;;;;;;;20.69;66.08;99046.20;223636;182;147150;-69
2023/07/15 05:13:36;;;;;;;10.00;6.10;;;;;;;20.85;66.32;99046.42;223631;182;138437;-72
2023/07/15 05:18:41;;;;;;;9.10;5.70;;;;;;;20.97;66.17;99042.17;223672;182;137865;-63
2023/07/15 05:23:53;;;;;;;10.90;5.80;;;;;;;21.08;66.32;99044.17;223825;182;148495;-64
2023/07/15 05:28:57;;;;;;;10.30;5.90;;;;;;;21.20;66.15;99045.89;223651;182;138051;-63
2023/07/15 05:34:00;;;;;;;11.80;5.80;;;;;;;21.29;66.01;99050.16;223707;182;136859;-63
2023/07/15 05:39:03;;;;;;;11.10;5.30;;;;;;;21.44;65.44;99050.45;223648;182;148630;-64
2023/07/15 05:44:06;;;;;;;9.40;5.30;;;;;;;21.58;65.57;99048.90;223638;182;138095;-63
2023/07/15 05:49:10;;;;;;;8.40;5.30;;;;;;;21.72;65.12;99051.27;223731;182;139188;-63
2023/07/15 06:02:05;;;;;;;11.00;5.50;;;;;;;22.23;63.74;99047.80;220827;193;666554;-63
2023/07/15 06:07:09;;;;;;;6.90;4.20;;;;;;;22.44;62.29;99050.02;223755;183;136488;-64
2023/07/15 06:12:13;;;;;;;6.40;4.40;;;;;;;22.62;61.08;99046.71;223708;179;145005;-64
2023/07/15 06:17:16;;;;;;;9.40;4.20;;;;;;;22.75;60.42;99042.77;223846;182;138450;-66
2023/07/15 06:22:19;;;;;;;8.20;4.30;;;;;;;22.86;60.29;99036.42;223797;182;135939;-65
2023/07/15 06:27:23;;;;;;;6.30;4.10;;;;;;;23.02;60.82;99040.68;223792;182;143278;-66
2023/07/15 06:32:27;;;;;;;6.80;4.30;;;;;;;23.16;60.40;99042.25;223731;182;138397;-62
2023/07/15 06:37:32;;;;;;;10.10;5.10;;;;;;;23.28;60.17;99042.14;223734;182;136170;-63
2023/07/15 06:42:35;;;;;;;7.70;4.70;;;;;;;23.38;59.96;99042.30;223755;183;143991;-67
2023/07/15 07:05:49;;;;;;;7.00;5.30;;;;;;;23.90;57.27;99044.73;221521;193;665922;-72
2023/07/15 07:11:13;;;;;;;3.90;3.50;;;;;;;23.98;56.28;99043.59;223597;183;250347;-70
2023/07/15 07:16:17;;;;;;;4.40;3.30;;;;;;;24.08;55.52;99036.88;223674;183;143715;-71
2023/07/15 07:21:20;;;;;;;4.10;3.10;;;;;;;24.20;54.93;99035.06;223691;183;138456;-64
2023/07/15 07:26:24;;;;;;;6.90;3.70;;;;;;;24.31;55.05;99034.23;223777;183;136748;-64
2023/07/15 07:31:27;;;;;;;5.70;3.60;;;;;;;24.42;54.88;99036.84;223803;183;143970;-63
2023/07/15 07:36:31;;;;;;;4.70;3.00;;;;;;;24.51;54.48;99034.21;223722;182;138701;-64
2023/07/15 07:41:35;;;;;;;6.60;4.70;;;;;;;24.64;54.86;99027.79;223806;183;136081;-67
2023/07/15 07:46:39;;;;;;;6.70;3.70;;;;;;;24.74;55.13;99026.89;223658;183;143546;-66
2023/07/15 07:51:43;;;;;;;6.90;2.90;;;;;;;24.84;54.99;99022.23;223795;182;139160;-67
2023/07/15 07:56:46;;;;;;;18.90;4.00;;;;;;;24.99;53.51;99020.48;223735;183;136376;-64
2023/07/15 08:01:52;;;;;;;3.90;2.90;;;;;;;25.06;52.92;99021.65;223656;182;144984;-64
2023/07/15 08:06:58;;;;;;;3.60;2.70;;;;;;;25.15;52.38;99021.60;223727;183;138413;-63
2023/07/15 08:12:02;;;;;;;5.10;2.70;;;;;;;25.30;52.38;99022.66;223735;183;136239;-61
2023/07/15 08:17:05;;;;;;;5.80;3.00;;;;;;;25.43;52.19;99011.73;223643;183;146363;-62
2023/07/15 08:22:09;;;;;;;4.20;2.60;;;;;;;25.55;51.76;99009.70;223696;183;138731;-66
2023/07/15 08:27:14;;;;;;;54.70;43.90;;;;;;;25.60;50.28;99008.94;223520;179;137641;-65
2023/07/15 08:32:17;;;;;;;9.20;6.50;;;;;;;25.72;50.04;99007.20;223725;182;146739;-65
2023/07/15 08:37:21;;;;;;;5.20;3.40;;;;;;;25.87;49.78;99008.48;223663;183;138338;-64
2023/07/15 08:42:24;;;;;;;4.00;2.60;;;;;;;25.98;49.42;99006.90;223708;183;136344;-68
2023/07/15 08:47:28;;;;;;;9.10;5.70;;;;;;;26.12;49.58;99004.21;223851;181;147202;-67
2023/07/15 08:52:35;;;;;;;3.00;2.50;;;;;;;26.24;49.03;99002.06;223740;181;138260;-65
2023/07/15 08:57:39;;;;;;;20.00;15.20;;;;;;;26.41;49.02;99001.31;223673;181;136601;-65
2023/07/15 09:02:42;;;;;;;4.30;3.20;;;;;;;26.58;48.42;98995.93;223610;182;145868;-69
2023/07/15 09:07:56;;;;;;;4.40;3.10;;;;;;;26.73;46.92;98991.20;223612;181;138310;-65
2023/07/15 09:13:00;;;;;;;5.90;2.40;;;;;;;26.84;47.29;98987.06;223732;181;136529;-66
2023/07/15 09:18:07;;;;;;;4.20;2.50;;;;;;;26.84;46.32;98989.09;223837;181;145412;-67
2023/07/15 09:23:12;;;;;;;49.90;39.30;;;;;;;26.89;45.36;98982.42;223675;181;138844;-65
2023/07/15 09:28:15;;;;;;;16.80;15.10;;;;;;;27.03;44.87;98983.30;223692;181;139046;-66
2023/07/15 09:33:39;;;;;;;5.90;2.80;;;;;;;27.06;44.15;98981.76;223725;181;146067;-64
2023/07/15 09:38:45;;;;;;;4.10;2.50;;;;;;;27.12;43.78;98975.95;223693;181;138603;-73
2023/07/15 09:43:50;;;;;;;4.50;2.70;;;;;;;27.27;43.33;98968.88;223729;181;137237;-66
2023/07/15 09:48:56;;;;;;;4.30;2.10;;;;;;;27.42;42.58;98960.45;223698;181;145303;-70
2023/07/15 09:54:01;;;;;;;4.00;2.60;;;;;;;27.52;41.48;98961.16;223740;182;139991;-67
2023/07/15 09:59:14;;;;;;;4.90;3.50;;;;;;;27.63;41.44;98958.52;223656;181;137378;-67
2023/07/15 10:04:34;;;;;;;46.90;41.10;;;;;;;27.85;41.48;98958.55;223574;181;146020;-66
2023/07/15 10:09:45;;;;;;;61.50;51.10;;;;;;;28.00;41.18;98952.98;223625;181;139805;-64
2023/07/15 10:14:49;;;;;;;7.90;3.50;;;;;;;28.09;41.06;98949.40;223707;181;137669;-66
2023/07/15 10:20:01;;;;;;;9.80;2.60;;;;;;;28.29;41.01;98948.29;223737;181;145029;-68
2023/07/15 10:25:10;;;;;;;3.00;2.10;;;;;;;28.55;40.67;98941.60;223712;181;138528;-67
2023/07/15 10:30:13;;;;;;;3.40;2.00;;;;;;;28.79;39.12;98944.48;223711;181;136696;-64
2023/07/15 10:35:19;;;;;;;2.90;2.10;;;;;;;29.04;39.00;98943.63;223697;181;145743;-68
2023/07/15 10:40:51;;;;;;;4.60;2.20;;;;;;;29.25;38.67;98933.79;223690;181;137677;-71
2023/07/15 10:45:55;;;;;;;3.90;2.40;;;;;;;29.34;39.42;98940.63;223696;181;138995;-75
2023/07/15 10:51:01;;;;;;;3.60;2.40;;;;;;;29.60;39.16;98933.20;223615;181;146374;-74
2023/07/15 10:56:12;;;;;;;3.00;1.80;;;;;;;29.83;38.40;98930.69;223718;181;139310;-72
2023/07/15 11:01:16;;;;;;;53.40;40.00;;;;;;;29.96;38.43;98928.22;223662;181;137103;-64
2023/07/15 11:06:24;;;;;;;7.40;5.90;;;;;;;29.97;37.44;98923.02;223742;181;146188;-65
2023/07/15 11:11:27;;;;;;;5.40;2.80;;;;;;;30.10;38.19;98920.43;223792;181;139889;-64
2023/07/15 11:16:30;;;;;;;4.40;3.10;;;;;;;30.33;39.18;98921.25;223746;181;136741;-68
2023/07/15 11:21:33;;;;;;;3.70;2.30;;;;;;;30.60;38.62;98914.95;223677;181;145465;-69
2023/07/15 11:26:37;;;;;;;3.40;2.50;;;;;;;30.71;37.53;98906.84;223692;181;139054;-64
2023/07/15 11:31:45;;;;;;;6.10;2.80;;;;;;;30.90;36.70;98905.71;223594;181;137167;-67
2023/07/15 11:36:51;;;;;;;5.10;2.50;;;;;;;30.97;36.05;98901.39;223745;178;147763;-67
2023/07/15 11:41:54;;;;;;;6.50;2.30;;;;;;;31.09;37.10;98896.20;223738;181;138389;-69
2023/07/15 11:46:57;;;;;;;27.60;24.70;;;;;;;31.16;38.05;98884.73;223768;181;137269;-67
2023/07/15 11:52:01;;;;;;;4.20;2.50;;;;;;;31.18;36.88;98883.91;223829;181;146095;-66
2023/07/15 11:57:04;;;;;;;4.90;2.30;;;;;;;31.12;35.69;98881.32;223784;181;139651;-63
2023/07/15 13:02:05;;;;;;;4.70;3.50;;;;;;;32.57;33.02;98827.05;221675;193;666530;-64
2023/07/15 13:07:08;;;;;;;3.40;2.30;;;;;;;32.64;32.52;98829.58;223634;183;137066;-64
2023/07/15 13:12:11;;;;;;;3.30;2.40;;;;;;;32.69;32.09;98826.29;223672;183;143819;-67
2023/07/15 13:17:15;;;;;;;3.10;2.30;;;;;;;32.75;32.09;98816.70;223610;183;138409;-66
2023/07/15 13:22:20;;;;;;;3.90;2.00;;;;;;;32.85;32.25;98812.05;223693;181;136496;-64
2023/07/15 13:27:23;;;;;;;3.20;1.90;;;;;;;32.97;31.57;98814.17;223756;182;143142;-65
2023/07/15 13:32:27;;;;;;;3.10;1.90;;;;;;;33.16;31.47;98820.23;223756;181;139007;-68
2023/07/15 13:37:30;;;;;;;3.60;1.80;;;;;;;33.35;29.53;98820.52;223769;181;136195;-65
2023/07/15 13:42:33;;;;;;;34.20;30.40;;;;;;;33.51;29.56;98814.58;223850;181;144138;-64
2023/07/15 13:47:41;;;;;;;5.70;3.00;;;;;;;33.70;29.47;98808.49;223695;181;138889;-64
2023/07/15 13:52:48;;;;;;;172.30;150.50;;;;;;;33.91;29.56;98804.14;223717;181;136123;-65
2023/07/15 14:02:05;;;;;;;9.40;8.30;;;;;;;34.26;29.82;98796.95;220621;193;665911;-66
2023/07/15 14:07:09;;;;;;;5.30;2.90;;;;;;;34.36;28.92;98797.23;223413;184;136311;-65
2023/07/15 14:12:13;;;;;;;5.00;2.80;;;;;;;34.45;28.87;98797.23;223479;184;143746;-65
2023/07/15 14:17:16;;;;;;;5.50;3.10;;;;;;;34.53;29.33;98795.16;223585;183;138668;-65
2023/07/15 14:22:20;;;;;;;3.10;2.30;;;;;;;34.52;28.89;98798.29;223631;183;137614;-63
2023/07/15 14:27:40;;;;;;;2.70;2.10;;;;;;;34.45;27.43;98791.72;223436;184;143767;-67
2023/07/15 14:32:44;;;;;;;3.70;2.20;;;;;;;34.38;28.55;98787.77;223423;183;138896;-64
2023/07/15 14:37:47;;;;;;;3.30;2.30;;;;;;;34.25;27.65;98787.83;223598;184;137087;-68
2023/07/15 14:42:52;;;;;;;19.60;15.10;;;;;;;34.06;26.73;98789.59;223484;183;143471;-67
2023/07/15 14:47:56;;;;;;;4.50;3.70;;;;;;;33.81;26.69;98786.20;223424;184;138789;-65
2023/07/15 14:53:00;;;;;;;4.40;2.60;;;;;;;33.51;26.99;98784.94;223343;184;137523;-63
2023/07/15 14:58:04;;;;;;;3.10;2.40;;;;;;;33.23;26.97;98781.68;223504;183;145232;-65
2023/07/15 15:03:07;;;;;;;3.10;1.90;;;;;;;32.97;27.92;98777.44;223392;181;138306;-64
2023/07/15 15:08:11;;;;;;;3.20;1.80;;;;;;;32.75;27.87;98771.12;223517;184;137188;-64
2023/07/15 15:13:15;;;;;;;2.30;1.70;;;;;;;32.52;28.19;98767.39;223400;184;145102;-64
2023/07/15 15:18:18;;;;;;;3.30;1.90;;;;;;;32.33;28.02;98768.00;223443;184;139197;-65
2023/07/15 15:23:23;;;;;;;3.80;2.30;;;;;;;32.21;28.23;98759.27;223301;184;136681;-66
2023/07/15 15:28:26;;;;;;;53.90;45.50;;;;;;;32.14;28.73;98758.66;223482;184;145747;-64
2023/07/15 15:33:29;;;;;;;5.10;3.80;;;;;;;32.09;29.02;98751.40;223478;184;138707;-63
2023/07/15 15:38:32;;;;;;;3.10;2.00;;;;;;;31.99;28.87;98747.61;223525;184;136344;-64
2023/07/15 15:43:35;;;;;;;4.00;2.20;;;;;;;31.90;28.76;98751.20;223527;184;146926;-69
2023/07/15 16:12:59;;;;;;;2.80;2.20;;;;;;;31.14;31.04;98751.19;221562;193;665479;-64
2023/07/15 16:18:02;;;;;;;5.20;2.40;;;;;;;30.94;31.69;98752.37;223696;183;135861;-63
2023/07/15 16:23:06;;;;;;;32.50;26.90;;;;;;;30.82;31.80;98751.88;223603;183;143612;-62
2023/07/15 16:28:09;;;;;;;2.70;2.50;;;;;;;30.82;32.09;98752.09;223522;183;140024;-62
2023/07/15 16:33:12;;;;;;;3.50;3.20;;;;;;;30.82;32.01;98748.29;223586;183;137747;-62
2023/07/15 16:38:16;;;;;;;227.40;203.70;;;;;;;30.82;32.14;98749.45;223638;183;144250;-62
2023/07/15 16:43:19;;;;;;;7.80;6.50;;;;;;;30.85;32.28;98746.91;223627;183;138783;-64
2023/07/15 16:48:26;;;;;;;4.20;3.50;;;;;;;30.86;31.84;98756.37;223637;183;137001;-64
2023/07/15 16:53:29;;;;;;;5.80;2.40;;;;;;;30.83;32.28;98752.19;223594;184;143854;-62
2023/07/15 16:58:32;;;;;;;3.90;2.70;;;;;;;30.83;32.04;98754.36;223616;183;138201;-63
2023/07/15 17:03:36;;;;;;;2.80;2.30;;;;;;;30.84;32.23;98748.84;223567;183;136733;-62
2023/07/15 17:08:40;;;;;;;5.20;2.60;;;;;;;30.82;32.55;98752.26;223653;183;145343;-62
2023/07/15 17:13:43;;;;;;;3.90;2.30;;;;;;;30.77;32.55;98748.81;223623;183;138491;-63
2023/07/15 17:18:46;;;;;;;2.80;2.30;;;;;;;30.74;32.81;98751.74;223698;183;136246;-62
2023/07/15 17:23:50;;;;;;;4.50;2.30;;;;;;;30.68;33.77;98746.38;223595;183;144992;-63
2023/07/15 17:28:53;;;;;;;203.10;180.30;;;;;;;30.57;33.91;98749.82;223521;183;139056;-62
2023/07/15 17:33:56;;;;;;;16.90;15.10;;;;;;;30.47;35.13;98744.59;223622;182;138401;-61
2023/07/15 17:38:59;;;;;;;7.70;6.20;;;;;;;30.32;35.67;98744.05;223654;182;145909;-62
2023/07/15 17:44:05;;;;;;;5.30;4.80;;;;;;;30.19;36.25;98753.28;223584;181;140133;-63
2023/07/15 17:49:08;;;;;;;7.90;5.30;;;;;;;30.08;37.11;98758.36;223627;181;139424;-61
2023/07/15 17:54:12;;;;;;;6.30;4.80;;;;;;;29.97;38.04;98754.17;223730;182;145814;-62
2023/07/15 17:59:15;;;;;;;13.80;9.40;;;;;;;29.83;38.76;98748.20;223677;182;139096;-63
2023/07/15 18:04:19;;;;;;;12.90;9.60;;;;;;;29.72;39.23;98749.29;223653;181;137603;-63
2023/07/15 18:09:22;;;;;;;11.60;7.10;;;;;;;29.60;40.12;98748.12;223578;181;145507;-62
2023/07/15 18:14:25;;;;;;;160.60;146.10;;;;;;;29.46;40.60;98744.77;223624;182;142377;-62
2023/07/15 18:19:29;;;;;;;257.70;229.50;;;;;;;29.34;41.53;98748.91;223669;181;139260;-62
2023/07/15 18:24:38;;;;;;;33.60;30.10;;;;;;;29.27;42.09;98746.45;223685;181;145008;-62
2023/07/15 18:29:41;;;;;;;10.30;9.10;;;;;;;29.13;42.49;98752.75;223663;182;139106;-63
2023/07/15 18:34:45;;;;;;;16.70;9.30;;;;;;;28.98;42.79;98759.41;223628;181;137591;-63
2023/07/15 18:39:48;;;;;;;13.60;11.00;;;;;;;28.81;43.32;98768.61;223696;181;145262;-62
2023/07/15 18:44:51;;;;;;;7.90;7.10;;;;;;;28.66;43.99;98771.39;223562;182;140243;-63
2023/07/15 18:49:54;;;;;;;7.70;6.90;;;;;;;28.48;45.09;98775.09;223601;181;137072;-62
2023/07/15 18:54:57;;;;;;;7.90;4.60;;;;;;;28.33;45.82;98777.14;223761;181;145399;-62
2023/07/15 19:00:02;;;;;;;8.70;4.20;;;;;;;28.19;46.31;98789.23;223568;181;138837;-60
2023/07/15 19:05:06;;;;;;;8.90;4.40;;;;;;;28.09;46.42;98782.94;223657;181;137245;-62
2023/07/15 19:10:10;;;;;;;44.90;36.70;;;;;;;28.01;47.14;98777.02;223684;182;145062;-63
2023/07/15 19:15:14;;;;;;;8.10;6.00;;;;;;;27.95;47.52;98779.23;223619;182;140264;-61
2023/07/15 19:20:17;;;;;;;13.10;7.00;;;;;;;27.87;48.08;98788.09;223622;181;137353;-62
2023/07/15 19:25:20;;;;;;;6.60;5.50;;;;;;;27.75;47.94;98787.66;223674;181;145810;-62
2023/07/15 19:30:23;;;;;;;11.60;8.30;;;;;;;27.63;48.55;98786.39;223783;182;138446;-62
2023/07/15 19:35:27;;;;;;;9.20;5.20;;;;;;;27.52;48.98;98785.77;223671;182;139057;-62
2023/07/15 19:40:30;;;;;;;152.50;129.90;;;;;;;27.44;49.24;98786.91;223653;181;145788;-62
2023/07/15 19:45:33;;;;;;;18.60;13.30;;;;;;;27.36;49.68;98789.55;223603;182;138468;-62
2023/07/15 19:50:36;;;;;;;8.20;5.40;;;;;;;27.30;50.15;98793.36;223690;182;138168;-62
2023/07/15 19:55:39;;;;;;;60.80;53.20;;;;;;;27.24;50.49;98796.98;223689;182;145490;-62
2023/07/15 20:00:43;;;;;;;25.20;21.70;;;;;;;27.19;50.39;98803.98;223684;181;138870;-61
2023/07/15 20:05:47;;;;;;;7.90;5.30;;;;;;;27.11;50.41;98804.84;223685;182;137287;-62
2023/07/15 20:10:50;;;;;;;10.40;4.60;;;;;;;26.94;50.74;98800.71;223619;182;145197;-62
2023/07/15 20:15:54;;;;;;;8.80;4.70;;;;;;;26.79;51.13;98793.59;223704;182;140767;-62
2023/07/15 20:20:58;;;;;;;11.70;4.80;;;;;;;26.68;51.34;98792.95;223761;181;138129;-63
2023/07/15 20:26:02;;;;;;;7.50;4.60;;;;;;;26.56;52.02;98799.63;223599;181;145452;-60
2023/07/15 22:03:08;;;;;;;13.40;6.90;;;;;;;23.62;63.72;98824.46;221529;190;668598;-63
2023/07/15 22:08:12;;;;;;;9.30;6.60;;;;;;;23.53;63.78;98830.63;223799;182;136423;-62
2023/07/15 22:13:16;;;;;;;12.20;6.60;;;;;;;23.48;64.24;98839.02;223778;181;143661;-62
2023/07/15 22:18:19;;;;;;;10.30;6.50;;;;;;;23.48;64.33;98832.74;223704;181;138756;-62
2023/07/15 22:23:25;;;;;;;13.60;6.60;;;;;;;23.50;64.47;98834.95;223788;182;136073;-62
2023/07/15 22:28:28;;;;;;;12.10;6.30;;;;;;;23.56;64.41;98832.10;223751;181;144435;-63
2023/07/15 22:33:32;;;;;;;7.40;6.00;;;;;;;23.66;64.31;98836.12;223721;182;138670;-62
2023/07/15 22:38:35;;;;;;;13.80;6.80;;;;;;;23.75;64.15;98837.29;223789;181;136118;-61
2023/07/15 22:43:39;;;;;;;12.50;6.30;;;;;;;23.81;64.13;98833.66;223780;182;143363;-62
2023/07/15 22:48:42;;;;;;;9.10;6.50;;;;;;;23.82;63.97;98833.51;223676;181;138917;-62
2023/07/15 22:53:45;;;;;;;12.40;6.40;;;;;;;23.82;64.06;98833.89;223818;182;137020;-61
2023/07/15 23:02:05;;;;;;;13.10;6.50;;;;;;;23.79;64.13;98828.65;219702;193;666272;-61
2023/07/15 23:07:09;;;;;;;10.10;6.70;;;;;;;23.67;64.15;98833.00;223778;183;137619;-62
2023/07/15 23:12:15;;;;;;;10.50;6.50;;;;;;;23.56;64.20;98824.41;223770;182;143650;-62
2023/07/15 23:17:18;;;;;;;8.80;6.30;;;;;;;23.47;64.12;98818.89;223758;182;138216;-62
2023/07/15 23:22:22;;;;;;;10.90;6.20;;;;;;;23.39;64.29;98818.76;223737;183;136563;-62
2023/07/15 23:27:25;;;;;;;7.90;5.90;;;;;;;23.32;64.44;98814.98;223699;183;143926;-61
2023/07/15 23:32:28;;;;;;;11.40;6.30;;;;;;;23.30;64.66;98815.07;223778;182;138721;-61
2023/07/15 23:37:31;;;;;;;10.30;6.40;;;;;;;23.30;64.75;98810.17;223873;182;136229;-62
2023/07/15 23:42:35;;;;;;;11.80;6.20;;;;;;;23.27;64.74;98808.60;223833;182;143235;-62
2023/07/15 23:47:40;;;;;;;13.10;7.30;;;;;;;23.23;64.78;98807.42;223775;182;138737;-61
2023/07/15 23:52:44;;;;;;;10.20;6.80;;;;;;;23.16;64.77;98804.58;223810;182;136552;-61
2023/07/15 23:57:50;;;;;;;9.20;6.20;;;;;;;23.07;64.81;98795.35;223754;182;145070;-61
